Time;durP1;ratioP1;P1;durP2;ratioP2;P2;SDS_P1;SDS_P2;PMS_P1;PMS_P2;Temp;Humidity;BMP_temperature;BMP_pressure;BME280_temperature;BME280_humidity;BME280_pressure;Samples;Min_cycle;Max_cycle;Signal;HPM_P1;HPM_P2
2022/05/29 00:00:00;;;;;;;1.27;0.80;;;14.20;92.80;;;;;;5086193;28;20033;-81
2022/05/29 00:02:27;;;;;;;0.82;0.70;;;14.40;92.80;;;;;;5069063;28;20044;-82
2022/05/29 00:05:05;;;;;;;1.35;0.47;;;13.90;92.80;;;;;;5068250;28;20073;-81
2022/05/29 00:07:48;;;;;;;0.68;0.65;;;14.10;93.00;;;;;;5068769;28;20408;-82
2022/05/29 00:10:18;;;;;;;1.70;0.80;;;14.10;92.70;;;;;;5068852;28;20044;-81
2022/05/29 00:12:47;;;;;;;0.63;0.60;;;14.00;92.70;;;;;;5051182;28;20064;-81
2022/05/29 00:15:21;;;;;;;2.35;0.80;;;13.90;92.70;;;;;;5052415;28;20063;-82
2022/05/29 00:17:53;;;;;;;1.80;0.80;;;13.90;92.70;;;;;;5067566;28;20075;-80
2022/05/29 00:20:26;;;;;;;2.15;0.60;;;13.80;92.70;;;;;;5053035;28;20224;-81
2022/05/29 00:22:55;;;;;;;2.05;0.63;;;13.90;92.80;;;;;;5068204;28;20094;-82
2022/05/29 00:25:23;;;;;;;4.38;0.63;;;13.90;92.80;;;;;;5066570;28;21303;-82
2022/05/29 00:27:59;;;;;;;3.03;0.80;;;13.80;92.80;;;;;;5066035;28;20118;-81
2022/05/29 00:30:30;;;;;;;2.17;0.75;;;13.80;92.90;;;;;;5066131;28;20152;-82
2022/05/29 00:32:59;;;;;;;3.28;0.65;;;13.80;92.90;;;;;;5067841;28;20048;-83
2022/05/29 00:35:28;;;;;;;2.75;1.88;;;13.70;92.90;;;;;;5066371;28;20075;-81
2022/05/29 00:37:57;;;;;;;2.88;0.85;;;13.90;93.00;;;;;;5052386;28;20043;-81
2022/05/29 00:40:48;;;;;;;3.15;0.93;;;13.30;92.80;;;;;;5068210;28;20056;-81
2022/05/29 00:43:22;;;;;;;5.18;1.75;;;13.70;93.00;;;;;;5068247;28;20577;-82
2022/05/29 00:45:57;;;;;;;1.60;0.73;;;13.60;93.00;;;;;;5066672;28;20044;-82
2022/05/29 00:48:28;;;;;;;0.98;0.68;;;13.30;92.90;;;;;;5067394;27;20595;-82
2022/05/29 00:51:01;;;;;;;2.30;0.70;;;13.50;93.10;;;;;;5064388;28;20539;-82
2022/05/29 00:53:42;;;;;;;0.52;0.52;;;13.50;93.10;;;;;;5069567;28;21005;-81
2022/05/29 00:56:21;;;;;;;0.57;0.40;;;13.50;93.10;;;;;;5065381;28;20045;-81
2022/05/29 00:58:56;;;;;;;1.65;0.77;;;13.60;93.10;;;;;;5067082;28;20052;-82
2022/05/29 01:01:25;;;;;;;2.55;0.80;;;13.50;93.10;;;;;;5068711;28;20490;-82
2022/05/29 01:03:58;;;;;;;2.13;0.88;;;13.40;93.10;;;;;;5067588;28;20045;-81
2022/05/29 01:06:28;;;;;;;1.02;0.70;;;13.40;93.20;;;;;;5083497;27;20532;-81
2022/05/29 01:08:59;;;;;;;1.20;1.10;;;13.40;93.20;;;;;;5065599;28;21226;-82
2022/05/29 01:11:40;;;;;;;1.17;0.82;;;13.40;93.30;;;;;;5068078;28;20071;-82
2022/05/29 01:14:30;;;;;;;0.95;0.80;;;13.30;93.20;;;;;;5049951;28;20111;-81
2022/05/29 01:17:11;;;;;;;0.98;0.60;;;13.80;93.40;;;;;;5082876;28;20092;-82
2022/05/29 01:19:56;;;;;;;1.80;0.90;;;13.70;93.40;;;;;;5066180;28;20119;-81
2022/05/29 01:22:44;;;;;;;1.10;0.90;;;13.20;93.30;;;;;;5067301;28;20049;-81
2022/05/29 01:25:19;;;;;;;1.25;0.70;;;13.20;93.30;;;;;;5082974;28;20044;-81
2022/05/29 01:28:25;;;;;;;1.15;0.75;;;13.20;93.30;;;;;;5066265;28;20106;-82
2022/05/29 01:31:14;;;;;;;1.55;1.00;;;12.90;93.20;;;;;;5050693;28;20541;-81
2022/05/29 01:34:21;;;;;;;1.88;0.80;;;13.10;93.30;;;;;;5072335;27;20049;-80
2022/05/29 01:37:22;;;;;;;4.72;1.08;;;13.10;93.30;;;;;;5008398;28;20060;-81
2022/05/29 01:40:14;;;;;;;1.05;0.70;;;13.10;93.30;;;;;;5049725;28;20056;-82
2022/05/29 01:42:57;;;;;;;4.50;1.02;;;12.90;93.30;;;;;;5058410;28;20053;-82
2022/05/29 01:45:55;;;;;;;0.88;0.68;;;13.10;93.40;;;;;;5083490;28;20135;-81
2022/05/29 01:48:39;;;;;;;3.83;0.80;;;13.00;93.50;;;;;;5067643;28;20525;-81
2022/05/29 01:51:27;;;;;;;3.40;0.77;;;12.80;93.40;;;;;;5065423;28;20056;-82
2022/05/29 01:54:28;;;;;;;2.08;0.98;;;12.90;93.60;;;;;;5082308;28;20633;-80
2022/05/29 01:57:22;;;;;;;1.45;0.75;;;12.90;93.60;;;;;;5064544;27;20110;-83
2022/05/29 02:00:11;;;;;;;1.33;0.70;;;12.80;93.70;;;;;;5055338;28;20051;-81
2022/05/29 02:03:07;;;;;;;1.88;0.98;;;12.80;93.60;;;;;;5049996;28;20053;-81
2022/05/29 02:06:03;;;;;;;1.88;1.00;;;12.80;93.70;;;;;;5064071;28;20053;-81
2022/05/29 02:09:02;;;;;;;1.17;0.65;;;12.80;93.70;;;;;;5058879;28;20053;-81
2022/05/29 02:11:31;;;;;;;1.90;0.88;;;12.80;93.80;;;;;;5052369;28;20044;-81
2022/05/29 02:14:23;;;;;;;1.60;0.68;;;12.60;93.90;;;;;;5065625;28;20057;-81
2022/05/29 02:17:05;;;;;;;7.55;1.45;;;12.70;93.90;;;;;;5064615;28;20049;-81
2022/05/29 02:19:39;;;;;;;1.60;0.90;;;12.70;93.90;;;;;;5065452;28;20541;-82
2022/05/29 02:22:35;;;;;;;0.63;0.50;;;12.60;93.90;;;;;;5066597;28;20037;-82
2022/05/29 02:25:15;;;;;;;1.08;0.77;;;12.30;93.90;;;;;;5049896;28;20049;-81
2022/05/29 02:27:53;;;;;;;0.85;0.85;;;12.50;94.00;;;;;;5065781;28;20075;-82
2022/05/29 02:30:32;;;;;;;1.45;0.80;;;12.50;94.10;;;;;;5066445;28;20045;-82
2022/05/29 02:33:34;;;;;;;2.25;1.15;;;12.50;94.10;;;;;;5050069;28;20582;-82
2022/05/29 02:36:23;;;;;;;1.48;0.95;;;12.50;94.10;;;;;;5064791;28;20052;-81
2022/05/29 02:39:15;;;;;;;1.70;1.13;;;13.10;94.30;;;;;;5067869;28;20048;-81
2022/05/29 02:41:54;;;;;;;1.00;0.90;;;12.30;94.10;;;;;;5062779;28;20103;-82
2022/05/29 02:44:52;;;;;;;3.05;0.88;;;12.40;94.20;;;;;;5065675;28;20044;-80
2022/05/29 02:47:40;;;;;;;2.40;1.30;;;12.30;94.40;;;;;;5065691;28;20060;-81
2022/05/29 02:50:32;;;;;;;1.00;0.90;;;12.30;94.30;;;;;;5081956;28;20515;-81
2022/05/29 02:53:05;;;;;;;;;;;12.30;94.30;;;;;;5065881;28;20195;-81
2022/05/29 02:55:40;;;;;;;0.93;0.75;;;12.20;94.30;;;;;;5066229;28;19921;-81
2022/05/29 02:58:19;;;;;;;2.38;0.98;;;12.20;94.40;;;;;;5064098;28;20049;-81
2022/05/29 03:01:12;;;;;;;0.95;0.60;;;12.20;94.40;;;;;;5065217;28;20079;-81
2022/05/29 03:04:07;;;;;;;1.02;0.93;;;11.70;94.20;;;;;;5064841;28;20048;-81
2022/05/29 03:06:48;;;;;;;0.75;0.75;;;12.10;94.40;;;;;;5065621;28;20078;-81
2022/05/29 03:09:45;;;;;;;3.22;1.30;;;12.00;94.50;;;;;;5066530;28;20045;-80
2022/05/29 03:12:42;;;;;;;1.27;0.88;;;12.10;94.60;;;;;;5048467;28;20059;-80
2022/05/29 03:15:29;;;;;;;2.10;1.00;;;12.00;94.60;;;;;;5027315;28;20052;-81
2022/05/29 03:18:13;;;;;;;;;;;;;;;;;;;;;
2022/05/29 03:20:48;;;;;;;1.90;0.77;;;12.10;94.60;;;;;;5065567;28;44810;-81
2022/05/29 03:23:23;;;;;;;4.30;0.95;;;12.00;94.60;;;;;;5048146;28;20055;-82
2022/05/29 03:26:03;;;;;;;1.50;0.95;;;11.90;94.70;;;;;;5049819;28;20101;-80
2022/05/29 03:28:47;;;;;;;1.60;0.98;;;12.00;94.70;;;;;;5065536;28;20176;-81
2022/05/29 03:31:22;;;;;;;1.33;0.80;;;11.60;94.70;;;;;;5064117;28;20068;-78
2022/05/29 03:33:58;;;;;;;0.75;0.75;;;11.40;94.70;;;;;;5048740;28;20081;-80
2022/05/29 03:36:30;;;;;;;1.52;0.98;;;12.90;95.10;;;;;;5065684;28;20044;-80
2022/05/29 03:38:59;;;;;;;3.53;0.88;;;11.70;94.90;;;;;;5066594;28;20080;-80
2022/05/29 03:41:46;;;;;;;3.33;0.95;;;11.80;95.00;;;;;;5049403;28;20073;-81
2022/05/29 03:44:22;;;;;;;1.83;1.00;;;11.60;94.90;;;;;;5064199;28;20118;-80
2022/05/29 03:46:54;;;;;;;1.55;0.73;;;11.70;95.00;;;;;;5065553;28;20037;-80
2022/05/29 03:49:26;;;;;;;1.05;0.80;;;11.70;95.00;;;;;;5077251;28;20048;-80
2022/05/29 03:51:55;;;;;;;2.95;0.93;;;12.10;95.20;;;;;;5081415;28;20051;-81
2022/05/29 03:54:21;;;;;;;1.20;0.65;;;11.30;95.00;;;;;;5077081;28;20044;-80
2022/05/29 03:56:55;;;;;;;2.15;0.98;;;11.50;95.20;;;;;;5082239;28;20041;-80
2022/05/29 03:59:21;;;;;;;5.55;1.05;;;11.50;95.20;;;;;;5080328;28;20044;-82
2022/05/29 04:01:56;;;;;;;3.08;1.10;;;11.50;95.30;;;;;;5080545;28;20147;-81
2022/05/29 04:04:30;;;;;;;3.60;1.02;;;11.60;95.30;;;;;;5080128;28;20048;-81
2022/05/29 04:07:03;;;;;;;1.42;0.98;;;11.90;95.40;;;;;;5070163;28;20535;-82
2022/05/29 04:12:29;;;;;;;0.57;0.50;;;12.20;95.60;;;;;;5066727;28;20674;-80
2022/05/29 04:14:55;;;;;;;3.65;1.17;;;11.60;95.50;;;;;;5053055;28;20143;-81
2022/05/29 04:17:23;;;;;;;1.38;0.68;;;11.50;95.50;;;;;;5068328;28;20512;-81
2022/05/29 04:19:54;;;;;;;2.17;0.93;;;11.50;95.50;;;;;;5052808;28;20055;-80
2022/05/29 04:22:26;;;;;;;2.42;0.93;;;11.50;95.50;;;;;;5081690;28;20057;-81
2022/05/29 04:25:04;;;;;;;2.00;1.05;;;11.50;95.50;;;;;;5070112;28;20163;-80
2022/05/29 04:27:33;;;;;;;2.15;1.13;;;11.40;95.60;;;;;;5070929;28;20041;-80
2022/05/29 04:29:59;;;;;;;1.73;1.13;;;11.10;95.60;;;;;;5083194;28;20040;-80
2022/05/29 04:35:20;;;;;;;5.15;0.95;;;11.40;95.80;;;;;;5070032;28;20052;-80
2022/05/29 04:37:56;;;;;;;1.88;1.02;;;11.70;95.90;;;;;;5065350;28;20044;-81
2022/05/29 04:40:22;;;;;;;2.83;0.90;;;11.30;95.90;;;;;;5067708;28;20048;-80
2022/05/29 04:42:56;;;;;;;2.65;1.05;;;10.70;95.80;;;;;;5050164;28;20037;-81
2022/05/29 04:45:26;;;;;;;1.45;1.00;;;11.30;96.00;;;;;;5067777;28;20132;-81
2022/05/29 04:47:52;;;;;;;3.72;1.98;;;11.00;96.00;;;;;;5066543;28;20036;-81
2022/05/29 04:50:23;;;;;;;3.63;1.55;;;11.30;96.00;;;;;;5067856;28;20596;-81
2022/05/29 04:52:52;;;;;;;3.88;0.90;;;11.30;96.10;;;;;;5066702;28;20049;-81
2022/05/29 04:55:21;;;;;;;2.40;0.98;;;11.30;96.20;;;;;;5067985;28;20075;-81
2022/05/29 04:57:47;;;;;;;2.90;1.17;;;11.30;96.20;;;;;;5066711;28;20043;-82
2022/05/29 05:00:14;;;;;;;2.20;0.77;;;11.20;96.30;;;;;;5067847;28;20091;-81
2022/05/29 05:02:43;;;;;;;3.00;0.88;;;11.20;96.40;;;;;;5067515;28;20127;-80
2022/05/29 05:05:13;;;;;;;2.17;1.17;;;11.20;96.40;;;;;;5066310;28;20040;-81
2022/05/29 05:07:45;;;;;;;3.17;1.30;;;11.20;96.50;;;;;;5068185;28;20056;-81
2022/05/29 05:10:23;;;;;;;2.63;1.30;;;11.20;96.50;;;;;;5050165;28;20115;-81
2022/05/29 05:12:53;;;;;;;1.60;1.10;;;11.20;96.50;;;;;;5066218;28;20073;-80
2022/05/29 05:15:25;;;;;;;3.00;2.67;;;11.20;96.60;;;;;;5066806;28;20052;-80
2022/05/29 05:17:51;;;;;;;4.05;1.33;;;11.20;96.70;;;;;;5066703;28;20044;-80
2022/05/29 05:20:30;;;;;;;2.97;1.23;;;11.20;96.80;;;;;;5065734;28;20099;-81
2022/05/29 05:23:04;;;;;;;1.55;0.90;;;11.20;96.80;;;;;;5066373;28;20513;-80
2022/05/29 05:25:33;;;;;;;1.33;1.00;;;11.10;96.90;;;;;;5067712;28;20048;-81
2022/05/29 05:28:02;;;;;;;2.13;1.10;;;11.60;97.10;;;;;;5066460;28;20569;-80
2022/05/29 05:30:30;;;;;;;2.38;1.05;;;11.20;97.00;;;;;;5050954;28;20698;-81
2022/05/29 05:33:02;;;;;;;3.80;1.48;;;11.20;97.10;;;;;;5066392;28;20037;-81
2022/05/29 05:35:28;;;;;;;3.57;1.03;;;10.60;97.00;;;;;;5066791;28;20049;-82
2022/05/29 05:37:56;;;;;;;2.25;1.17;;;11.20;97.20;;;;;;5066868;28;21143;-80
2022/05/29 05:40:25;;;;;;;1.60;1.17;;;11.20;97.20;;;;;;5067754;28;20041;-81
2022/05/29 05:43:00;;;;;;;5.55;1.45;;;11.20;97.30;;;;;;5066077;28;20087;-82
2022/05/29 05:45:34;;;;;;;2.50;1.15;;;11.20;97.40;;;;;;5066597;28;20047;-81
2022/05/29 05:48:09;;;;;;;1.85;0.93;;;10.50;97.20;;;;;;5064955;28;20052;-81
2022/05/29 05:50:40;;;;;;;2.13;1.42;;;10.80;97.50;;;;;;5067540;28;20140;-81
2022/05/29 05:53:06;;;;;;;2.75;0.88;;;11.20;97.60;;;;;;5064951;28;20216;-81
2022/05/29 05:55:39;;;;;;;2.70;1.40;;;11.20;97.70;;;;;;5066579;28;20562;-81
2022/05/29 05:58:31;;;;;;;1.85;0.93;;;11.20;97.70;;;;;;5065919;28;20056;-81
2022/05/29 06:01:05;;;;;;;2.63;1.00;;;10.70;97.70;;;;;;5065971;28;20068;-81
2022/05/29 06:03:34;;;;;;;1.23;0.98;;;11.30;97.80;;;;;;5064881;28;20084;-81
2022/05/29 06:06:02;;;;;;;1.38;1.08;;;11.40;97.90;;;;;;5067844;28;20032;-81
2022/05/29 06:08:28;;;;;;;3.13;1.27;;;11.50;97.90;;;;;;5065681;28;20048;-80
2022/05/29 06:10:54;;;;;;;3.95;1.33;;;11.50;98.20;;;;;;5064064;28;20049;-80
2022/05/29 06:13:23;;;;;;;1.48;1.00;;;11.40;98.00;;;;;;5066421;28;20045;-81
2022/05/29 06:15:49;;;;;;;2.15;1.20;;;11.40;98.00;;;;;;5066344;28;20048;-82
2022/05/29 06:18:19;;;;;;;1.02;0.80;;;11.50;98.10;;;;;;5065187;28;20041;-82
2022/05/29 06:21:00;;;;;;;3.75;1.70;;;11.50;98.20;;;;;;5066820;28;20057;-81
2022/05/29 06:23:27;;;;;;;6.03;1.30;;;11.50;98.20;;;;;;5065450;28;20033;-81
2022/05/29 06:26:06;;;;;;;3.08;0.98;;;11.50;98.30;;;;;;5065689;28;20044;-81
2022/05/29 06:28:42;;;;;;;3.90;1.20;;;11.60;98.40;;;;;;5065874;28;20037;-81
2022/05/29 06:31:14;;;;;;;4.85;1.25;;;11.40;98.50;;;;;;5066190;28;20124;-80
2022/05/29 06:33:43;;;;;;;2.15;0.90;;;11.60;98.60;;;;;;5068121;28;20744;-81
2022/05/29 06:36:24;;;;;;;4.22;1.10;;;11.70;98.70;;;;;;5063464;28;20530;-81
2022/05/29 06:38:54;;;;;;;5.07;2.80;;;11.70;98.70;;;;;;5065476;28;20074;-82
2022/05/29 06:41:25;;;;;;;5.95;1.70;;;11.70;98.80;;;;;;5048077;28;20155;-81
2022/05/29 06:43:54;;;;;;;8.43;1.20;;;11.60;98.90;;;;;;5064179;28;20064;-81
2022/05/29 06:46:21;;;;;;;1.58;1.08;;;11.40;98.90;;;;;;5064163;28;20053;-81
2022/05/29 06:48:50;;;;;;;18.00;3.22;;;11.70;99.00;;;;;;5080947;28;20273;-81
2022/05/29 06:51:26;;;;;;;3.08;0.98;;;11.80;99.10;;;;;;5063882;28;20048;-80
2022/05/29 06:54:00;;;;;;;3.90;1.23;;;11.70;99.10;;;;;;5064682;28;20044;-81
2022/05/29 06:56:43;;;;;;;3.13;0.93;;;11.70;99.20;;;;;;5063794;28;20163;-81
2022/05/29 06:59:22;;;;;;;;;;;;;;;;;;;;;
2022/05/29 07:07:30;;;;;;;0.70;0.70;;;12.00;99.40;;;;;;5067736;28;20048;-81
2022/05/29 07:10:01;;;;;;;6.75;2.30;;;12.10;99.50;;;;;;5067086;28;20079;-80
2022/05/29 07:12:33;;;;;;;2.97;1.38;;;12.20;99.50;;;;;;5081939;28;20657;-80
2022/05/29 07:15:05;;;;;;;4.03;1.05;;;12.20;99.50;;;;;;5066893;28;20068;-80
2022/05/29 07:17:31;;;;;;;2.35;1.05;;;12.70;99.60;;;;;;5048938;28;20757;-81
2022/05/29 07:19:57;;;;;;;3.25;1.25;;;12.30;99.40;;;;;;5065106;28;20076;-80
2022/05/29 07:22:33;;;;;;;1.90;1.10;;;12.40;99.40;;;;;;5066896;28;20906;-81
2022/05/29 07:24:59;;;;;;;3.05;1.00;;;12.40;99.30;;;;;;5079707;28;20064;-81
2022/05/29 07:27:25;;;;;;;2.30;1.30;;;12.40;99.30;;;;;;5081297;28;20136;-81
2022/05/29 07:29:53;;;;;;;2.65;0.98;;;12.40;99.20;;;;;;5064655;28;20101;-80
2022/05/29 07:32:23;;;;;;;1.70;0.90;;;12.30;99.10;;;;;;5065072;28;20044;-81
2022/05/29 07:34:57;;;;;;;1.35;1.23;;;12.50;99.20;;;;;;5064715;28;20049;-81
2022/05/29 07:37:26;;;;;;;0.85;0.70;;;12.50;99.20;;;;;;5065823;28;20041;-81
2022/05/29 07:39:55;;;;;;;2.10;1.00;;;12.60;99.00;;;;;;5064228;28;20442;-81
2022/05/29 07:45:23;;;;;;;3.17;1.23;;;12.90;98.80;;;;;;5066182;28;20072;-80
2022/05/29 07:47:56;;;;;;;1.20;0.90;;;13.40;98.70;;;;;;5081437;27;20297;-80
2022/05/29 07:50:22;;;;;;;3.28;0.88;;;12.80;98.60;;;;;;5066035;28;20159;-80
2022/05/29 07:52:52;;;;;;;2.13;0.77;;;13.00;98.30;;;;;;5065511;28;20049;-81
2022/05/29 07:55:22;;;;;;;2.05;1.00;;;13.20;98.40;;;;;;5064776;28;20099;-80
2022/05/29 07:58:03;;;;;;;4.05;0.95;;;13.40;98.10;;;;;;5064551;28;20048;-81
2022/05/29 08:00:34;;;;;;;2.65;0.90;;;13.50;97.70;;;;;;5067162;28;20040;-81
2022/05/29 08:03:06;;;;;;;2.10;0.88;;;13.50;97.00;;;;;;5068969;28;20103;-81
2022/05/29 08:05:49;;;;;;;2.92;0.93;;;13.30;96.70;;;;;;5067410;28;20065;-83
2022/05/29 08:08:32;;;;;;;5.00;0.80;;;13.20;96.80;;;;;;5067212;28;20533;-82
2022/05/29 08:11:21;;;;;;;;;;;;;;;;;;;;;
2022/05/29 08:13:55;;;;;;;3.40;0.68;;;13.20;96.60;;;;;;5068893;28;38602;-82
2022/05/29 08:16:29;;;;;;;2.30;0.70;;;13.10;96.40;;;;;;5066946;28;20889;-82
2022/05/29 08:22:22;;;;;;;4.00;1.02;;;13.10;96.10;;;;;;5067997;28;20056;-83
2022/05/29 08:30:46;;;;;;;5.07;0.90;;;12.80;95.70;;;;;;5070938;28;20049;-83
2022/05/29 08:33:35;;;;;;;0.75;0.50;;;13.20;95.70;;;;;;5069042;28;20128;-84
2022/05/29 08:36:26;;;;;;;0.82;0.52;;;13.10;95.60;;;;;;5084420;27;20538;-83
2022/05/29 08:39:29;;;;;;;1.75;0.88;;;13.10;95.50;;;;;;5038391;28;20175;-83
2022/05/29 08:42:39;;;;;;;3.50;0.73;;;13.10;95.50;;;;;;5055225;28;20041;-83
2022/05/29 08:45:34;;;;;;;1.98;0.80;;;13.10;95.30;;;;;;5068352;28;20135;-83
2022/05/29 08:48:33;;;;;;;4.75;1.00;;;13.10;95.20;;;;;;5068372;28;20130;-83
2022/05/29 08:51:34;;;;;;;2.55;1.08;;;13.10;95.20;;;;;;5045435;28;20060;-82
2022/05/29 08:54:31;;;;;;;5.00;0.75;;;13.10;95.00;;;;;;5029498;28;20036;-83
2022/05/29 08:57:18;;;;;;;1.17;0.55;;;13.10;94.80;;;;;;5029407;28;20037;-82
2022/05/29 08:59:56;;;;;;;1.23;0.68;;;13.10;94.90;;;;;;5029793;28;20905;-83
2022/05/29 09:06:01;;;;;;;1.88;0.82;;;13.30;94.70;;;;;;5043188;28;20058;-82
2022/05/29 09:09:11;;;;;;;1.60;0.75;;;13.40;94.70;;;;;;5047721;28;20049;-84
2022/05/29 09:11:57;;;;;;;3.25;1.00;;;13.40;94.70;;;;;;5029735;28;20063;-82
2022/05/29 09:14:48;;;;;;;2.92;1.00;;;13.50;94.60;;;;;;5030207;28;20110;-83
2022/05/29 09:17:53;;;;;;;1.17;0.80;;;13.60;94.40;;;;;;5045689;28;20053;-83
2022/05/29 09:20:59;;;;;;;2.42;0.70;;;13.70;94.40;;;;;;5029610;28;20285;-83
2022/05/29 09:23:43;;;;;;;1.20;0.68;;;13.70;94.10;;;;;;5064759;28;20045;-82
2022/05/29 09:26:46;;;;;;;1.48;0.80;;;14.00;93.60;;;;;;5065119;28;20045;-82
2022/05/29 09:29:39;;;;;;;3.33;1.10;;;14.00;93.50;;;;;;5060893;28;20128;-83
2022/05/29 09:32:23;;;;;;;5.25;0.70;;;14.10;93.50;;;;;;5062117;28;20052;-82
2022/05/29 09:35:52;;;;;;;0.68;0.52;;;14.00;93.20;;;;;;5050404;28;20041;-83
2022/05/29 09:38:51;;;;;;;1.70;0.88;;;14.20;93.30;;;;;;5066048;28;20044;-82
2022/05/29 09:41:41;;;;;;;1.17;0.70;;;14.30;93.20;;;;;;5064408;28;20049;-83
2022/05/29 09:44:21;;;;;;;3.20;1.00;;;14.90;93.40;;;;;;5049507;28;20037;-83
2022/05/29 09:50:25;;;;;;;4.25;1.20;;;15.00;92.70;;;;;;5066818;28;20374;-82
2022/05/29 09:53:25;;;;;;;;;;;;;;;;;;;;;
2022/05/29 09:56:20;;;;;;;4.32;0.80;;;15.20;91.90;;;;;;5066741;28;42152;-82
2022/05/29 09:58:59;;;;;;;3.60;1.63;;;15.10;91.40;;;;;;5064668;28;20041;-82
2022/05/29 10:01:40;;;;;;;1.23;0.80;;;15.30;91.40;;;;;;5066282;28;20048;-82
2022/05/29 10:04:38;;;;;;;2.22;0.88;;;15.20;91.40;;;;;;5049538;28;20052;-83
2022/05/29 10:07:51;;;;;;;2.85;0.90;;;15.40;91.40;;;;;;5064525;28;20852;-82
2022/05/29 10:10:28;;;;;;;1.27;0.75;;;15.30;90.90;;;;;;5064757;28;20071;-82
2022/05/29 10:13:02;;;;;;;2.65;0.77;;;15.10;90.90;;;;;;5064442;28;20049;-82
2022/05/29 10:15:42;;;;;;;3.30;0.90;;;15.60;90.80;;;;;;5064628;28;20036;-83
2022/05/29 10:18:36;;;;;;;3.95;1.40;;;15.00;90.90;;;;;;5064833;28;20036;-82
2022/05/29 10:21:10;;;;;;;4.18;1.00;;;15.40;90.90;;;;;;5048686;28;20120;-83
2022/05/29 10:24:04;;;;;;;;;;;;;;;;;;;;;
2022/05/29 10:26:49;;;;;;;1.85;0.60;;;15.70;90.30;;;;;;5065924;28;43920;-83
2022/05/29 10:32:44;;;;;;;1.83;1.73;;;15.70;89.40;;;;;;5067066;28;20132;-83
2022/05/29 10:35:37;;;;;;;2.50;0.70;;;15.70;89.70;;;;;;5066639;28;20068;-83
2022/05/29 10:38:45;;;;;;;2.65;1.77;;;15.70;89.10;;;;;;5065723;28;20048;-83
2022/05/29 10:42:05;;;;;;;10.05;6.68;;;15.20;88.20;;;;;;5036120;28;20552;-83
2022/05/29 10:44:46;;;;;;;15.32;8.63;;;15.40;87.60;;;;;;5066322;28;20048;-83
2022/05/29 10:48:05;;;;;;;7.47;4.15;;;15.80;88.20;;;;;;5081771;27;20549;-84
2022/05/29 10:51:20;;;;;;;3.35;1.48;;;16.00;88.60;;;;;;5066852;28;20048;-83
2022/05/29 10:57:41;;;;;;;2.00;1.00;;;15.80;87.80;;;;;;5066740;28;20502;-83
2022/05/29 11:00:47;;;;;;;3.30;1.13;;;16.30;88.50;;;;;;5049118;28;21345;-83
2022/05/29 11:03:57;;;;;;;1.48;0.80;;;16.50;88.40;;;;;;5063583;28;20048;-83
2022/05/29 11:10:40;;;;;;;;;;;;;;;;;;;;;
2022/05/29 11:13:38;;;;;;;4.00;1.50;;;16.80;86.10;;;;;;5020654;28;20050;-82
2022/05/29 11:16:43;;;;;;;1.10;0.73;;;16.80;86.00;;;;;;5065558;28;20045;-83
2022/05/29 11:19:28;;;;;;;3.95;0.93;;;16.80;85.50;;;;;;5023208;28;20607;-82
2022/05/29 11:22:35;;;;;;;3.55;1.52;;;16.90;85.80;;;;;;5005805;28;20468;-82
2022/05/29 11:25:23;;;;;;;1.02;0.82;;;17.00;85.20;;;;;;5057696;28;20087;-82
2022/05/29 11:28:22;;;;;;;0.65;0.40;;;17.00;84.30;;;;;;5063863;28;20052;-82
2022/05/29 11:31:33;;;;;;;0.95;0.60;;;16.90;82.90;;;;;;5050098;28;20060;-81
2022/05/29 11:38:11;;;;;;;1.17;0.70;;;16.20;82.40;;;;;;5063642;28;20057;-83
2022/05/29 11:41:05;;;;;;;3.63;2.42;;;16.10;82.10;;;;;;5047222;28;20044;-82
2022/05/29 11:43:54;;;;;;;3.08;2.20;;;16.60;82.50;;;;;;5060869;28;20060;-82
2022/05/29 11:53:16;;;;;;;2.45;0.85;;;17.30;81.90;;;;;;5049154;28;20568;-83
2022/05/29 11:59:15;;;;;;;4.35;1.17;;;17.20;81.30;;;;;;5063402;28;20082;-83
2022/05/29 12:01:59;;;;;;;6.53;1.27;;;17.10;80.80;;;;;;5062756;28;20259;-83
2022/05/29 12:05:11;;;;;;;6.10;1.02;;;16.90;80.30;;;;;;5044848;28;20359;-83
2022/05/29 12:08:08;;;;;;;1.95;1.48;;;17.30;80.70;;;;;;5036889;28;20045;-83
2022/05/29 12:11:32;;;;;;;0.93;0.70;;;17.40;80.00;;;;;;5047964;28;20775;-83
2022/05/29 12:14:13;;;;;;;2.33;1.02;;;17.50;79.50;;;;;;5036064;28;20096;-83
2022/05/29 12:17:02;;;;;;;1.73;0.80;;;17.40;79.10;;;;;;5063033;28;20047;-82
2022/05/29 12:20:27;;;;;;;;;;;;;;;;;;;;;
2022/05/29 12:23:29;;;;;;;3.45;0.77;;;17.40;78.70;;;;;;5064233;28;38600;-82
2022/05/29 12:26:12;;;;;;;1.50;0.68;;;17.40;79.10;;;;;;5063811;28;20609;-82
2022/05/29 12:28:56;;;;;;;1.00;0.85;;;17.60;79.40;;;;;;5047468;28;20052;-83
2022/05/29 12:31:45;;;;;;;2.10;0.90;;;17.70;78.80;;;;;;5047088;28;20064;-81
2022/05/29 12:35:23;;;;;;;2.08;0.85;;;17.40;78.00;;;;;;5062203;28;21009;-83
2022/05/29 12:37:58;;;;;;;2.13;1.20;;;17.00;77.90;;;;;;5061547;28;20115;-83
2022/05/29 12:40:52;;;;;;;2.22;1.52;;;16.90;78.20;;;;;;5062857;28;20587;-83
2022/05/29 12:43:34;;;;;;;;;;;;;;;;;;;;;
2022/05/29 12:46:19;;;;;;;3.53;0.80;;;17.50;78.40;;;;;;5064950;28;38340;-83
2022/05/29 12:49:00;;;;;;;1.17;0.90;;;17.70;78.10;;;;;;5084502;28;20091;-84
2022/05/29 12:52:08;;;;;;;1.48;0.93;;;17.70;77.90;;;;;;5081477;27;20049;-82
2022/05/29 12:58:35;;;;;;;1.52;0.85;;;17.70;78.50;;;;;;5059678;28;20056;-83
2022/05/29 13:01:34;;;;;;;1.98;0.85;;;18.00;78.30;;;;;;5051025;28;20140;-81
2022/05/29 13:04:41;;;;;;;;;;;;;;;;;;;;;
2022/05/29 13:07:45;;;;;;;4.03;0.70;;;18.10;77.20;;;;;;5067109;28;41972;-84
2022/05/29 13:10:44;;;;;;;1.55;0.90;;;17.80;77.80;;;;;;5067711;28;20554;-79
2022/05/29 13:13:46;;;;;;;;;;;;;;;;;;;;;
2022/05/29 13:16:34;;;;;;;3.90;1.30;;;18.00;77.90;;;;;;5067354;28;43433;-82
2022/05/29 13:19:25;;;;;;;1.23;1.13;;;18.20;77.50;;;;;;5067288;28;20173;-82
2022/05/29 13:22:09;;;;;;;3.00;0.70;;;18.00;77.30;;;;;;5070494;28;20044;-82
2022/05/29 13:25:04;;;;;;;1.65;0.88;;;16.90;76.80;;;;;;5050189;28;20041;-82
2022/05/29 13:27:46;;;;;;;2.05;0.80;;;17.70;77.60;;;;;;5049346;28;20130;-82
2022/05/29 13:30:45;;;;;;;3.55;1.20;;;17.50;77.80;;;;;;5050640;28;20108;-83
2022/05/29 13:34:07;;;;;;;3.20;1.52;;;18.30;77.70;;;;;;5051171;28;20041;-82
2022/05/29 13:36:54;;;;;;;3.25;0.70;;;18.20;77.30;;;;;;5065898;28;20055;-82
2022/05/29 13:39:35;;;;;;;5.07;1.13;;;18.40;77.10;;;;;;5081999;28;20052;-82
2022/05/29 13:42:35;;;;;;;2.20;0.73;;;18.70;77.30;;;;;;5050197;28;20036;-82
2022/05/29 13:45:19;;;;;;;1.67;0.98;;;19.00;77.10;;;;;;5083455;28;20047;-82
2022/05/29 13:48:10;;;;;;;1.60;0.68;;;19.00;76.20;;;;;;5066038;28;20044;-81
2022/05/29 13:54:01;;;;;;;2.28;1.00;;;19.30;75.70;;;;;;5068573;28;20045;-82
2022/05/29 13:57:15;;;;;;;1.25;0.80;;;19.00;75.80;;;;;;5049952;28;20518;-82
2022/05/29 14:05:56;;;;;;;2.65;1.17;;;18.90;74.20;;;;;;5070798;28;20052;-81
2022/05/29 14:08:50;;;;;;;1.48;0.77;;;18.90;74.40;;;;;;5067569;28;20649;-82
2022/05/29 14:11:44;;;;;;;0.98;0.70;;;18.60;74.30;;;;;;5064461;28;20061;-82
2022/05/29 14:14:37;;;;;;;3.35;0.85;;;19.10;74.50;;;;;;5048843;28;20533;-82
2022/05/29 14:18:00;;;;;;;2.40;0.90;;;19.20;73.50;;;;;;5047833;28;20155;-82
2022/05/29 14:21:07;;;;;;;2.55;0.95;;;19.20;72.90;;;;;;4971889;28;20516;-83
2022/05/29 14:24:10;;;;;;;1.42;0.82;;;19.10;72.90;;;;;;4989496;28;20141;-82
2022/05/29 14:26:57;;;;;;;5.10;1.05;;;19.20;73.00;;;;;;4973825;28;20200;-82
2022/05/29 14:29:41;;;;;;;3.00;1.85;;;19.20;72.90;;;;;;4981399;28;20046;-83
2022/05/29 14:32:15;;;;;;;1.85;0.90;;;19.20;72.60;;;;;;5049838;28;20071;-81
2022/05/29 14:34:57;;;;;;;2.35;1.10;;;19.10;72.50;;;;;;5066915;28;20059;-82
2022/05/29 14:37:56;;;;;;;2.33;1.17;;;18.90;72.70;;;;;;5083417;28;20122;-82
2022/05/29 14:40:52;;;;;;;;;;;;;;;;;;;;;
2022/05/29 14:43:47;;;;;;;7.78;1.75;;;19.30;73.00;;;;;;5075090;28;41636;-84
2022/05/29 14:49:40;;;;;;;1.20;1.10;;;18.90;73.40;;;;;;5068033;28;20045;-83
2022/05/29 14:53:31;;;;;;;1.67;0.90;;;18.90;73.60;;;;;;5060702;28;20131;-82
2022/05/29 14:56:07;;;;;;;3.85;1.38;;;18.80;73.40;;;;;;5043834;28;20049;-82
2022/05/29 14:58:48;;;;;;;2.22;1.40;;;19.20;73.70;;;;;;5082767;27;20091;-82
2022/05/29 15:01:39;;;;;;;0.95;0.70;;;18.60;73.10;;;;;;5063990;28;20139;-82
2022/05/29 15:04:25;;;;;;;2.10;1.10;;;19.00;72.90;;;;;;5066250;28;20090;-82
2022/05/29 15:10:53;;;;;;;;;;;;;;;;;;;;;
2022/05/29 15:17:01;;;;;;;1.60;1.38;;;19.00;72.40;;;;;;5066176;28;20037;-83
2022/05/29 15:25:29;;;;;;;2.55;0.90;;;19.00;72.60;;;;;;5066399;28;20045;-82
2022/05/29 15:28:20;;;;;;;1.30;0.82;;;18.80;72.60;;;;;;5064295;28;20049;-82
2022/05/29 15:34:15;;;;;;;2.55;1.13;;;18.70;72.60;;;;;;5065490;28;20049;-82
2022/05/29 15:37:16;;;;;;;3.30;1.07;;;18.70;72.90;;;;;;5064858;28;20049;-82
2022/05/29 15:43:26;;;;;;;;;;;;;;;;;;;;;
2022/05/29 15:46:42;;;;;;;3.08;0.88;;;18.70;72.70;;;;;;5064797;28;44335;-82
2022/05/29 15:49:32;;;;;;;;;;;;;;;;;;;;;
2022/05/29 15:52:39;;;;;;;2.42;1.63;;;18.80;73.00;;;;;;5064524;28;40305;-82
2022/05/29 15:56:01;;;;;;;;;;;;;;;;;;;;;
2022/05/29 15:58:46;;;;;;;2.97;0.63;;;18.80;72.80;;;;;;5064471;28;42536;-81
2022/05/29 16:01:27;;;;;;;1.65;1.20;;;18.70;72.70;;;;;;5047436;28;20048;-82